Time;durP1;ratioP1;P1;durP2;ratioP2;P2;SDS_P1;SDS_P2;PMS_P1;PMS_P2;Temp;Humidity;BMP_temperature;BMP_pressure;BME280_temperature;BME280_humidity;BME280_pressure;Samples;Min_cycle;Max_cycle;Signal;HPM_P1;HPM_P2
2022/02/12 00:00:30;;;;;;;5.22;3.10;;;;;7.10;103152.00;;;;5081202;28;20566;-78
2022/02/12 00:02:57;;;;;;;5.90;2.67;;;;;7.10;103156.00;;;;5069221;28;20194;-78
2022/02/12 00:05:26;;;;;;;4.95;2.88;;;;;7.10;103152.00;;;;5084882;28;20194;-78
2022/02/12 00:07:54;;;;;;;6.03;3.40;;;;;7.10;103151.00;;;;5087201;28;20198;-78
2022/02/12 00:10:22;;;;;;;8.20;3.55;;;;;7.10;103154.00;;;;5089663;28;20201;-78
2022/02/12 00:12:49;;;;;;;4.95;3.53;;;;;7.10;103155.00;;;;5074967;28;20256;-78
2022/02/12 00:15:17;;;;;;;4.72;3.03;;;;;7.10;103148.00;;;;5068313;28;20226;-78
2022/02/12 00:17:44;;;;;;;8.30;3.35;;;;;7.00;103145.00;;;;5076102;28;20205;-77
2022/02/12 00:20:13;;;;;;;5.30;3.03;;;;;7.00;103145.00;;;;5070914;28;20199;-78
2022/02/12 00:22:42;;;;;;;8.02;3.83;;;;;7.00;103136.00;;;;5083879;28;20222;-78
2022/02/12 00:25:10;;;;;;;7.47;3.20;;;;;7.00;103139.00;;;;5088196;28;20202;-78
2022/02/12 00:27:37;;;;;;;5.93;3.75;;;;;7.00;103137.00;;;;5069174;28;20206;-78
2022/02/12 00:30:05;;;;;;;4.25;2.97;;;;;7.00;103137.00;;;;5067868;28;20602;-78
2022/02/12 00:32:33;;;;;;;5.57;3.15;;;;;7.00;103130.00;;;;5084171;28;20209;-78
2022/02/12 00:35:01;;;;;;;7.25;3.67;;;;;7.00;103131.00;;;;5078696;28;20213;-77
2022/02/12 00:37:30;;;;;;;5.82;3.80;;;;;7.00;103128.00;;;;5073591;28;20278;-78
2022/02/12 00:39:59;;;;;;;6.55;3.55;;;;;7.00;103122.00;;;;5067852;28;20607;-78
2022/02/12 00:42:28;;;;;;;6.18;3.95;;;;;7.00;103113.00;;;;5099123;28;20229;-77
2022/02/12 00:44:55;;;;;;;5.50;3.08;;;;;7.00;103112.00;;;;5086703;28;20191;-77
2022/02/12 00:47:24;;;;;;;11.82;4.03;;;;;7.00;103110.00;;;;5071344;28;20203;-77
2022/02/12 00:49:51;;;;;;;5.72;3.70;;;;;7.00;103108.00;;;;5081936;28;20202;-78
2022/02/12 00:52:19;;;;;;;9.13;3.75;;;;;7.00;103118.00;;;;5084424;28;20201;-77
2022/02/12 00:54:46;;;;;;;4.97;3.17;;;;;7.00;103104.00;;;;5072602;28;20187;-77
2022/02/12 00:57:15;;;;;;;4.90;3.13;;;;;6.90;103102.00;;;;5081386;28;20205;-77
2022/02/12 00:59:43;;;;;;;6.20;3.35;;;;;6.90;103102.00;;;;5087178;28;20206;-77
2022/02/12 01:02:10;;;;;;;5.95;3.45;;;;;6.90;103102.00;;;;5084245;28;20226;-77
2022/02/12 01:04:37;;;;;;;6.20;3.15;;;;;6.90;103096.00;;;;5078458;28;20196;-77
2022/02/12 01:07:05;;;;;;;7.50;3.70;;;;;6.90;103091.00;;;;5081583;28;20190;-77
2022/02/12 01:09:32;;;;;;;5.88;3.40;;;;;6.90;103095.00;;;;5071722;28;20217;-77
2022/02/12 01:12:01;;;;;;;5.68;3.55;;;;;6.90;103101.00;;;;5067423;28;20194;-77
2022/02/12 01:14:30;;;;;;;5.85;3.58;;;;;6.90;103094.00;;;;5071460;28;20226;-77
2022/02/12 01:16:57;;;;;;;5.18;2.97;;;;;6.90;103096.00;;;;5068177;28;20203;-77
2022/02/12 01:19:24;;;;;;;3.95;3.03;;;;;6.90;103094.00;;;;5068731;28;20187;-78
2022/02/12 01:21:52;;;;;;;7.15;3.50;;;;;6.90;103089.00;;;;5077451;28;20222;-77
2022/02/12 01:24:19;;;;;;;4.50;2.80;;;;;6.90;103088.00;;;;5067455;28;20531;-77
2022/02/12 01:26:47;;;;;;;6.53;3.67;;;;;6.90;103082.00;;;;5069509;28;20203;-77
2022/02/12 01:29:14;;;;;;;6.43;3.53;;;;;6.90;103082.00;;;;5071276;28;20292;-77
2022/02/12 01:31:43;;;;;;;6.13;3.33;;;;;6.90;103085.00;;;;5067810;28;20266;-77
2022/02/12 01:34:11;;;;;;;4.65;2.90;;;;;6.90;103086.00;;;;5069080;28;20708;-77
2022/02/12 01:36:38;;;;;;;6.28;3.70;;;;;6.90;103088.00;;;;5082520;28;20225;-77
2022/02/12 01:39:06;;;;;;;7.10;2.78;;;;;6.90;103093.00;;;;5084415;28;20836;-77
2022/02/12 01:41:33;;;;;;;5.70;3.45;;;;;6.80;103087.00;;;;5074059;28;20219;-77
2022/02/12 01:44:08;;;;;;;4.43;3.03;;;;;6.80;103084.00;;;;5067331;28;20198;-77
2022/02/12 01:46:35;;;;;;;4.28;2.92;;;;;6.80;103089.00;;;;5067618;28;20224;-77
2022/02/12 01:49:04;;;;;;;5.32;3.33;;;;;6.80;103075.00;;;;5074432;28;20267;-77
2022/02/12 01:51:32;;;;;;;6.40;3.55;;;;;6.80;103084.00;;;;5083994;28;20293;-77
2022/02/12 01:53:59;;;;;;;5.43;3.40;;;;;6.80;103076.00;;;;5078309;28;20198;-78
2022/02/12 01:56:27;;;;;;;5.72;2.80;;;;;6.80;103072.00;;;;5067770;28;20279;-77
2022/02/12 01:58:54;;;;;;;5.72;3.30;;;;;6.80;103075.00;;;;5068459;28;20202;-77
2022/02/12 02:01:22;;;;;;;5.85;3.33;;;;;6.80;103077.00;;;;5073270;28;20225;-77
2022/02/12 02:03:49;;;;;;;4.90;2.90;;;;;6.80;103070.00;;;;5068420;28;20257;-77
2022/02/12 02:06:18;;;;;;;4.35;2.67;;;;;6.80;103062.00;;;;5073809;28;20199;-77
2022/02/12 02:08:45;;;;;;;6.05;3.47;;;;;6.80;103051.00;;;;5067282;28;20199;-77
2022/02/12 02:11:15;;;;;;;6.53;3.20;;;;;6.80;103047.00;;;;5066215;28;20191;-77
2022/02/12 02:13:42;;;;;;;6.85;3.28;;;;;6.80;103055.00;;;;5070769;28;20194;-77
2022/02/12 02:16:13;;;;;;;5.50;3.53;;;;;6.80;103051.00;;;;5078788;28;20230;-78
2022/02/12 02:18:42;;;;;;;6.10;3.38;;;;;6.80;103041.00;;;;5069952;28;20195;-77
2022/02/12 02:21:10;;;;;;;5.03;3.05;;;;;6.80;103047.00;;;;5085862;28;20725;-77
2022/02/12 02:23:39;;;;;;;4.95;3.25;;;;;6.80;103042.00;;;;5083626;28;20209;-77
2022/02/12 02:26:08;;;;;;;5.97;3.33;;;;;6.80;103039.00;;;;5067518;28;20992;-77
2022/02/12 02:28:36;;;;;;;5.18;2.97;;;;;6.80;103036.00;;;;5067443;28;20281;-77
2022/02/12 02:31:03;;;;;;;5.05;2.95;;;;;6.80;103033.00;;;;5067785;28;20202;-77
2022/02/12 02:33:31;;;;;;;5.25;3.00;;;;;6.80;103036.00;;;;5071689;28;20202;-77
2022/02/12 02:35:58;;;;;;;5.30;2.95;;;;;6.80;103027.00;;;;5068000;28;20223;-77
2022/02/12 02:38:25;;;;;;;6.00;3.33;;;;;6.80;103026.00;;;;5067381;28;20187;-78
2022/02/12 02:40:56;;;;;;;6.18;3.10;;;;;6.80;103017.00;;;;5079314;28;20577;-78
2022/02/12 02:43:23;;;;;;;5.30;2.90;;;;;6.80;103009.00;;;;5085435;28;20226;-77
2022/02/12 02:45:51;;;;;;;6.82;3.35;;;;;6.80;103012.00;;;;5067243;28;20252;-77
2022/02/12 02:48:19;;;;;;;8.20;3.00;;;;;6.80;102997.00;;;;5068387;28;20198;-77
2022/02/12 02:56:18;;;;;;;7.10;3.67;;;;;6.80;102984.00;;;;5078393;28;20713;-77
2022/02/12 02:58:48;;;;;;;13.55;3.33;;;;;6.80;102986.00;;;;5087783;28;20302;-77
2022/02/12 03:01:17;;;;;;;6.10;3.55;;;;;6.80;102978.00;;;;5079927;28;20570;-77
2022/02/12 03:03:46;;;;;;;6.55;3.30;;;;;6.80;102967.00;;;;5071752;28;20594;-77
2022/02/12 03:06:15;;;;;;;7.15;3.28;;;;;6.80;102965.00;;;;5071821;28;20205;-77
2022/02/12 03:08:42;;;;;;;4.40;3.00;;;;;6.80;102965.00;;;;5067834;28;20194;-77
2022/02/12 03:11:11;;;;;;;7.68;3.38;;;;;6.80;102963.00;;;;5066578;28;20205;-77
2022/02/12 03:13:40;;;;;;;6.03;2.72;;;;;6.70;102963.00;;;;5068592;28;20241;-77
2022/02/12 03:16:08;;;;;;;5.80;3.10;;;;;6.80;102961.00;;;;5066764;28;20230;-77
2022/02/12 03:18:36;;;;;;;7.43;2.95;;;;;6.80;102959.00;;;;5070737;28;20591;-77
2022/02/12 03:21:03;;;;;;;4.82;2.97;;;;;6.80;102959.00;;;;5075887;28;20253;-77
2022/02/12 03:23:31;;;;;;;5.03;3.13;;;;;6.80;102959.00;;;;5089230;28;20602;-78
2022/02/12 03:25:58;;;;;;;6.90;3.38;;;;;6.80;102963.00;;;;5082999;28;20720;-77
2022/02/12 03:28:25;;;;;;;4.65;2.63;;;;;6.80;102969.00;;;;5088332;28;20727;-78
2022/02/12 03:30:54;;;;;;;11.05;3.50;;;;;6.70;102968.00;;;;5069717;28;20245;-77
2022/02/12 03:33:21;;;;;;;7.57;3.22;;;;;6.70;102967.00;;;;5071856;28;20192;-77
2022/02/12 03:35:50;;;;;;;5.40;3.38;;;;;6.70;102963.00;;;;5090612;28;20582;-77
2022/02/12 03:38:19;;;;;;;3.95;3.05;;;;;6.70;102954.00;;;;5082198;28;20585;-77
2022/02/12 03:40:49;;;;;;;5.60;3.42;;;;;6.70;102965.00;;;;5071622;28;20187;-77
2022/02/12 03:43:18;;;;;;;6.47;3.08;;;;;6.70;102956.00;;;;5088262;28;20279;-77
2022/02/12 03:45:46;;;;;;;4.43;2.90;;;;;6.70;102959.00;;;;5083977;28;20560;-77
2022/02/12 03:48:15;;;;;;;5.88;3.17;;;;;6.70;102962.00;;;;5086108;28;20287;-77
2022/02/12 03:50:43;;;;;;;7.28;3.78;;;;;6.70;102954.00;;;;5079193;28;20200;-78
2022/02/12 03:53:11;;;;;;;4.88;2.60;;;;;6.70;102952.00;;;;5088250;28;20288;-78
2022/02/12 03:55:39;;;;;;;5.55;3.35;;;;;6.70;102952.00;;;;5084618;28;20199;-79
2022/02/12 03:58:09;;;;;;;8.05;3.10;;;;;6.70;102944.00;;;;5078465;28;20210;-78
2022/02/12 04:00:37;;;;;;;6.00;2.45;;;;;6.70;102940.00;;;;5083079;28;20653;-78
2022/02/12 04:03:05;;;;;;;5.43;2.85;;;;;6.70;102935.00;;;;5069397;28;20229;-78
2022/02/12 04:05:34;;;;;;;4.65;2.83;;;;;6.70;102934.00;;;;5087822;28;20458;-78
2022/02/12 04:08:02;;;;;;;11.05;3.15;;;;;6.70;102932.00;;;;5090774;28;20191;-78
2022/02/12 04:10:29;;;;;;;4.55;2.92;;;;;6.60;102928.00;;;;5083042;28;20187;-78
2022/02/12 04:12:59;;;;;;;6.88;3.40;;;;;6.60;102925.00;;;;5072569;28;20203;-77
2022/02/12 04:15:26;;;;;;;4.47;2.95;;;;;6.60;102918.00;;;;5082113;28;20306;-78
2022/02/12 04:17:54;;;;;;;6.35;2.85;;;;;6.60;102919.00;;;;5069262;28;20195;-77
2022/02/12 04:20:23;;;;;;;5.80;2.90;;;;;6.60;102920.00;;;;5086594;28;20201;-78
2022/02/12 04:22:53;;;;;;;5.28;2.90;;;;;6.60;102927.00;;;;5069213;28;20303;-78
2022/02/12 04:25:22;;;;;;;6.15;2.85;;;;;6.60;102911.00;;;;5069955;28;20210;-78
2022/02/12 04:27:51;;;;;;;6.35;2.33;;;;;6.60;102909.00;;;;5069725;28;20207;-78
2022/02/12 04:30:18;;;;;;;6.50;2.70;;;;;6.60;102916.00;;;;5068958;28;20607;-78
2022/02/12 04:32:46;;;;;;;6.68;2.35;;;;;6.60;102905.00;;;;5078708;28;20203;-77
2022/02/12 04:35:15;;;;;;;5.43;2.70;;;;;6.60;102898.00;;;;5085370;28;20711;-78
2022/02/12 04:37:43;;;;;;;3.97;2.75;;;;;6.60;102899.00;;;;5075913;28;20201;-77
2022/02/12 04:40:13;;;;;;;5.47;2.53;;;;;6.60;102898.00;;;;5068731;28;20210;-78
2022/02/12 04:42:40;;;;;;;4.63;2.53;;;;;6.60;102888.00;;;;5071386;28;20219;-78
2022/02/12 04:45:08;;;;;;;4.30;2.90;;;;;6.60;102877.00;;;;5068816;28;20198;-78
2022/02/12 04:47:37;;;;;;;10.50;2.92;;;;;6.60;102890.00;;;;5069100;28;20199;-78
2022/02/12 04:50:06;;;;;;;3.30;2.28;;;;;6.60;102882.00;;;;5074975;28;20605;-78
2022/02/12 04:52:33;;;;;;;5.30;3.03;;;;;6.60;102880.00;;;;5073842;28;20198;-77
2022/02/12 04:55:00;;;;;;;5.38;2.17;;;;;6.50;102874.00;;;;5069288;28;20210;-78
2022/02/12 04:57:29;;;;;;;5.68;2.80;;;;;6.50;102870.00;;;;5074885;28;20202;-78
2022/02/12 04:59:56;;;;;;;3.78;2.35;;;;;6.50;102878.00;;;;5074520;28;20204;-78
2022/02/12 05:02:24;;;;;;;3.20;1.92;;;;;6.50;102874.00;;;;5068997;28;20215;-78
2022/02/12 05:04:51;;;;;;;3.92;2.60;;;;;6.50;102865.00;;;;5084796;28;20271;-78
2022/02/12 05:07:18;;;;;;;5.75;2.65;;;;;6.50;102864.00;;;;5087138;28;20217;-78
2022/02/12 05:09:45;;;;;;;4.35;2.47;;;;;6.50;102859.00;;;;5088831;28;20198;-78
2022/02/12 05:12:13;;;;;;;5.20;2.72;;;;;6.50;102853.00;;;;5081835;28;20688;-78
2022/02/12 05:14:41;;;;;;;4.57;2.13;;;;;6.50;102854.00;;;;5087348;28;20202;-77
2022/02/12 05:17:08;;;;;;;4.55;2.25;;;;;6.50;102843.00;;;;5074356;28;20214;-78
2022/02/12 05:19:36;;;;;;;5.50;2.85;;;;;6.50;102842.00;;;;5085985;28;20194;-78
2022/02/12 05:22:03;;;;;;;6.05;2.83;;;;;6.50;102831.00;;;;5084923;28;20201;-77
2022/02/12 05:24:31;;;;;;;3.50;2.83;;;;;6.50;102821.00;;;;5073066;28;20209;-77
2022/02/12 05:26:58;;;;;;;4.25;2.95;;;;;6.50;102829.00;;;;5070127;28;20191;-78
2022/02/12 05:29:25;;;;;;;8.02;3.10;;;;;6.50;102832.00;;;;5067697;28;20198;-78
2022/02/12 05:31:54;;;;;;;4.00;2.60;;;;;6.50;102837.00;;;;5075760;28;20201;-78
2022/02/12 05:34:21;;;;;;;5.10;2.85;;;;;6.50;102832.00;;;;5077630;28;20214;-78
2022/02/12 05:36:49;;;;;;;5.30;2.45;;;;;6.40;102833.00;;;;5068178;28;20219;-77
2022/02/12 05:39:16;;;;;;;5.75;2.67;;;;;6.50;102828.00;;;;5067708;28;20206;-77
2022/02/12 05:41:43;;;;;;;7.93;2.80;;;;;6.50;102829.00;;;;5074773;28;20206;-78
2022/02/12 05:44:10;;;;;;;3.40;2.53;;;;;6.40;102822.00;;;;5076559;28;20241;-78
2022/02/12 05:46:38;;;;;;;3.05;2.17;;;;;6.40;102828.00;;;;5068433;28;20567;-78
2022/02/12 05:49:07;;;;;;;5.22;2.63;;;;;6.40;102817.00;;;;5073599;28;20191;-78
2022/02/12 05:51:35;;;;;;;6.85;2.80;;;;;6.40;102815.00;;;;5076749;28;20202;-78
2022/02/12 05:54:05;;;;;;;4.72;2.50;;;;;6.40;102810.00;;;;5078022;28;20198;-78
2022/02/12 05:56:33;;;;;;;5.65;2.72;;;;;6.40;102816.00;;;;5072444;28;20294;-77
2022/02/12 05:59:02;;;;;;;5.55;2.30;;;;;6.40;102817.00;;;;5070925;28;20286;-77
2022/02/12 06:01:29;;;;;;;3.83;2.13;;;;;6.40;102817.00;;;;5074602;28;20245;-78
2022/02/12 06:03:57;;;;;;;4.40;2.08;;;;;6.40;102813.00;;;;5070932;28;20219;-78
2022/02/12 06:06:25;;;;;;;4.38;2.30;;;;;6.40;102821.00;;;;5072229;28;20195;-78
2022/02/12 06:08:55;;;;;;;8.63;3.15;;;;;6.40;102807.00;;;;5079226;28;20194;-78
2022/02/12 06:11:22;;;;;;;4.68;2.33;;;;;6.40;102804.00;;;;5067230;28;20195;-79
2022/02/12 06:13:52;;;;;;;4.65;2.25;;;;;6.40;102807.00;;;;5069998;28;20202;-78
2022/02/12 06:16:20;;;;;;;4.10;2.33;;;;;6.40;102800.00;;;;5067081;28;20227;-78
2022/02/12 06:18:47;;;;;;;6.28;2.30;;;;;6.40;102808.00;;;;5073577;28;20216;-78
2022/02/12 06:21:15;;;;;;;4.30;2.45;;;;;6.40;102794.00;;;;5076702;28;20201;-79
2022/02/12 06:23:45;;;;;;;5.32;2.22;;;;;6.40;102790.00;;;;5074414;28;20222;-78
2022/02/12 06:26:12;;;;;;;4.00;2.67;;;;;6.40;102785.00;;;;5090063;28;20203;-79
2022/02/12 06:28:39;;;;;;;5.07;2.10;;;;;6.40;102786.00;;;;5090064;28;20194;-78
2022/02/12 06:31:07;;;;;;;4.40;2.72;;;;;6.40;102776.00;;;;5077704;28;20206;-78
2022/02/12 06:33:34;;;;;;;5.10;2.38;;;;;6.40;102774.00;;;;5076926;28;20209;-78
2022/02/12 06:36:02;;;;;;;5.03;2.67;;;;;6.30;102776.00;;;;5084496;28;20206;-78
2022/02/12 06:38:29;;;;;;;5.07;2.75;;;;;6.40;102777.00;;;;5087182;28;20190;-78
2022/02/12 06:40:58;;;;;;;8.10;3.30;;;;;6.30;102777.00;;;;5084780;28;20228;-78
2022/02/12 06:43:26;;;;;;;3.75;2.55;;;;;6.30;102782.00;;;;5085498;28;20723;-78
2022/02/12 06:45:53;;;;;;;6.35;2.70;;;;;6.30;102770.00;;;;5068561;28;20195;-78
2022/02/12 06:48:21;;;;;;;5.88;3.10;;;;;6.30;102767.00;;;;5076057;28;20205;-78
2022/02/12 06:50:48;;;;;;;3.70;1.90;;;;;6.30;102767.00;;;;5070819;28;20206;-78
2022/02/12 06:53:16;;;;;;;4.15;2.53;;;;;6.30;102768.00;;;;5071273;28;20214;-77
2022/02/12 06:55:43;;;;;;;6.22;2.90;;;;;6.30;102770.00;;;;5070055;28;20734;-77
2022/02/12 06:58:12;;;;;;;4.60;2.58;;;;;6.30;102773.00;;;;5071085;28;20210;-78
2022/02/12 07:00:39;;;;;;;9.48;3.33;;;;;6.30;102766.00;;;;5075989;28;20224;-78
2022/02/12 07:03:06;;;;;;;5.97;2.83;;;;;6.30;102762.00;;;;5081785;28;20226;-77
2022/02/12 07:05:35;;;;;;;4.35;2.72;;;;;6.30;102768.00;;;;5079839;28;20207;-77
2022/02/12 07:08:02;;;;;;;6.07;2.80;;;;;6.30;102755.00;;;;5070483;28;20214;-77
2022/02/12 07:10:31;;;;;;;3.35;2.17;;;;;6.30;102765.00;;;;5086010;28;20580;-77
2022/02/12 07:12:58;;;;;;;6.03;3.55;;;;;6.30;102755.00;;;;5071251;28;20285;-77
2022/02/12 07:15:27;;;;;;;4.82;2.38;;;;;6.30;102755.00;;;;5070895;28;20229;-77
2022/02/12 07:17:54;;;;;;;6.05;2.92;;;;;6.30;102753.00;;;;5085661;28;20691;-77
2022/02/12 07:20:22;;;;;;;13.80;3.50;;;;;6.40;102752.00;;;;5087038;28;20198;-77
2022/02/12 07:22:49;;;;;;;3.75;2.47;;;;;6.40;102760.00;;;;5080519;28;20198;-77
2022/02/12 07:25:17;;;;;;;5.63;2.95;;;;;6.40;102747.00;;;;5074319;28;20298;-76
2022/02/12 07:27:45;;;;;;;6.82;2.85;;;;;6.40;102747.00;;;;5070414;28;20209;-76
2022/02/12 07:30:15;;;;;;;7.70;2.90;;;;;6.40;102752.00;;;;5079511;28;20195;-77
2022/02/12 07:32:44;;;;;;;4.47;2.90;;;;;6.40;102754.00;;;;5070728;28;20199;-76
2022/02/12 07:35:13;;;;;;;4.03;2.47;;;;;6.40;102757.00;;;;5097974;28;20210;-76
2022/02/12 07:37:42;;;;;;;5.55;2.67;;;;;6.40;102751.00;;;;5102595;28;20202;-77
2022/02/12 07:40:10;;;;;;;5.25;2.25;;;;;6.40;102744.00;;;;5082601;28;20198;-77
2022/02/12 07:42:38;;;;;;;8.82;2.70;;;;;6.50;102750.00;;;;5090106;28;20608;-76
2022/02/12 07:45:07;;;;;;;3.20;2.63;;;;;6.50;102749.00;;;;5090874;28;20606;-76
2022/02/12 07:47:36;;;;;;;6.20;2.83;;;;;6.50;102746.00;;;;5088811;28;20201;-77
2022/02/12 07:50:06;;;;;;;3.35;2.25;;;;;6.50;102746.00;;;;5088722;28;20190;-77
2022/02/12 07:52:34;;;;;;;5.22;3.20;;;;;6.60;102741.00;;;;5087273;28;20197;-76
2022/02/12 07:55:01;;;;;;;7.82;2.38;;;;;6.60;102742.00;;;;5089457;28;20230;-76
2022/02/12 07:57:28;;;;;;;8.77;2.70;;;;;6.60;102741.00;;;;5075310;28;20325;-76
2022/02/12 07:59:55;;;;;;;4.65;2.78;;;;;6.70;102735.00;;;;5076361;28;20195;-76
2022/02/12 08:02:23;;;;;;;4.60;2.55;;;;;6.70;102740.00;;;;5076196;28;20668;-76
2022/02/12 08:04:50;;;;;;;7.10;3.80;;;;;6.80;102738.00;;;;5070307;28;20226;-77
2022/02/12 08:07:31;;;;;;;7.57;2.80;;;;;6.80;102743.00;;;;5069556;28;20268;-76
2022/02/12 08:10:00;;;;;;;5.20;3.25;;;;;6.90;102741.00;;;;5067619;28;20195;-76
2022/02/12 08:12:28;;;;;;;7.53;2.90;;;;;6.90;102748.00;;;;5068906;28;20199;-76
2022/02/12 08:14:58;;;;;;;7.22;2.95;;;;;7.00;102742.00;;;;5077853;28;20292;-77
2022/02/12 08:17:26;;;;;;;5.50;3.10;;;;;7.00;102734.00;;;;5070860;28;20202;-77
2022/02/12 08:19:54;;;;;;;5.35;3.15;;;;;7.10;102740.00;;;;5073551;28;20197;-77
2022/02/12 08:22:23;;;;;;;6.05;3.00;;;;;7.10;102737.00;;;;5084990;28;20214;-77
2022/02/12 08:24:50;;;;;;;4.68;3.00;;;;;7.20;102740.00;;;;5074349;28;20219;-77
2022/02/12 08:27:18;;;;;;;5.78;2.90;;;;;7.30;102733.00;;;;5069572;28;20199;-77
2022/02/12 08:29:45;;;;;;;4.82;2.63;;;;;7.30;102725.00;;;;5078682;28;20195;-77
2022/02/12 08:32:13;;;;;;;5.78;2.92;;;;;7.40;102724.00;;;;5079273;28;20917;-77
2022/02/12 08:34:42;;;;;;;6.10;2.83;;;;;7.40;102727.00;;;;5072749;28;20191;-77
2022/02/12 08:37:10;;;;;;;5.13;2.92;;;;;7.50;102724.00;;;;5070045;28;20191;-77
2022/02/12 08:39:39;;;;;;;4.70;2.53;;;;;7.50;102731.00;;;;5081625;28;20195;-77
2022/02/12 08:42:07;;;;;;;7.85;2.45;;;;;7.60;102734.00;;;;5070791;28;20206;-77
2022/02/12 08:44:34;;;;;;;8.48;2.90;;;;;7.70;102717.00;;;;5076851;28;20246;-77
2022/02/12 08:47:02;;;;;;;7.05;3.00;;;;;7.70;102728.00;;;;5078475;28;20202;-77
2022/02/12 08:49:31;;;;;;;5.30;2.88;;;;;7.80;102719.00;;;;5071928;28;20252;-77
2022/02/12 08:51:58;;;;;;;8.77;3.15;;;;;7.90;102719.00;;;;5074335;28;20226;-75
2022/02/12 08:54:26;;;;;;;6.45;2.83;;;;;8.00;102712.00;;;;5068678;28;20665;-75
2022/02/12 08:56:55;;;;;;;9.10;3.38;;;;;8.00;102716.00;;;;5086558;28;20194;-75
2022/02/12 08:59:23;;;;;;;7.63;3.17;;;;;8.10;102711.00;;;;5069698;28;20183;-76
2022/02/12 09:01:52;;;;;;;5.28;3.00;;;;;8.10;102713.00;;;;5071059;28;20202;-76
2022/02/12 09:04:19;;;;;;;8.20;3.25;;;;;8.20;102705.00;;;;5076333;28;20596;-76
2022/02/12 09:06:47;;;;;;;5.78;3.05;;;;;8.20;102703.00;;;;5084762;28;20199;-77
2022/02/12 09:09:14;;;;;;;6.07;2.92;;;;;8.30;102701.00;;;;5063804;28;20339;-77
2022/02/12 09:11:45;;;;;;;6.55;2.28;;;;;8.40;102698.00;;;;5068435;28;20198;-77
2022/02/12 09:14:14;;;;;;;7.03;3.05;;;;;8.50;102689.00;;;;5071352;28;20786;-76
2022/02/12 09:16:41;;;;;;;7.95;2.75;;;;;8.50;102686.00;;;;5067418;28;20325;-75
2022/02/12 09:19:10;;;;;;;7.32;3.33;;;;;8.60;102676.00;;;;5068771;28;20632;-77
2022/02/12 09:21:38;;;;;;;7.00;3.10;;;;;8.60;102687.00;;;;5073741;28;20199;-76
2022/02/12 09:24:06;;;;;;;5.45;3.30;;;;;8.70;102687.00;;;;5080948;28;20724;-77
2022/02/12 09:26:33;;;;;;;5.85;2.83;;;;;8.80;102690.00;;;;5066801;28;20202;-76
2022/02/12 09:29:03;;;;;;;6.53;3.38;;;;;8.80;102682.00;;;;5071768;28;20201;-77
2022/02/12 09:31:32;;;;;;;6.88;2.80;;;;;8.90;102676.00;;;;5085787;28;20218;-76
2022/02/12 09:33:59;;;;;;;8.43;3.17;;;;;8.90;102669.00;;;;5082195;28;20260;-77
2022/02/12 09:36:27;;;;;;;5.13;2.80;;;;;9.00;102672.00;;;;5087169;28;20222;-77
2022/02/12 09:38:54;;;;;;;9.52;2.78;;;;;9.00;102665.00;;;;5085507;28;20197;-76
2022/02/12 09:41:23;;;;;;;6.18;2.58;;;;;9.10;102654.00;;;;5085050;28;20688;-76
2022/02/12 09:43:53;;;;;;;7.13;2.70;;;;;9.10;102663.00;;;;5072643;28;20247;-78
2022/02/12 09:46:43;;;;;;;6.05;2.58;;;;;9.10;102661.00;;;;5069118;28;20207;-77
2022/02/12 09:49:10;;;;;;;6.70;2.78;;;;;9.30;102650.00;;;;5074909;28;20202;-77
2022/02/12 09:51:41;;;;;;;6.53;2.70;;;;;9.30;102658.00;;;;5087984;28;20201;-76
2022/02/12 09:54:09;;;;;;;6.03;2.72;;;;;9.40;102647.00;;;;5074359;28;20206;-77
2022/02/12 09:56:37;;;;;;;6.57;3.35;;;;;9.50;102633.00;;;;5076577;28;20206;-76
2022/02/12 09:59:04;;;;;;;5.10;2.53;;;;;9.60;102633.00;;;;5070495;28;20203;-76
2022/02/12 10:01:31;;;;;;;6.20;3.38;;;;;9.70;102630.00;;;;5077016;28;20206;-78
2022/02/12 10:04:00;;;;;;;4.05;2.55;;;;;9.70;102632.00;;;;5066452;28;20234;-77
2022/02/12 10:06:41;;;;;;;4.93;2.92;;;;;9.70;102626.00;;;;5075236;28;20546;-77
2022/02/12 10:09:09;;;;;;;8.05;3.08;;;;;9.90;102618.00;;;;5098091;28;20671;-76
2022/02/12 10:11:44;;;;;;;4.57;2.40;;;;;9.90;102613.00;;;;5075046;28;20237;-76
2022/02/12 10:14:14;;;;;;;6.60;2.88;;;;;10.00;102626.00;;;;5067074;28;20199;-76
2022/02/12 10:17:00;;;;;;;4.72;2.40;;;;;10.00;102618.00;;;;5069385;28;20221;-77
2022/02/12 10:19:33;;;;;;;7.15;2.00;;;;;10.20;102621.00;;;;5086784;28;20198;-76
2022/02/12 10:22:09;;;;;;;4.15;2.38;;;;;10.20;102611.00;;;;5087230;28;20544;-78
2022/02/12 10:24:51;;;;;;;3.97;2.17;;;;;10.30;102606.00;;;;5079984;28;20223;-76
2022/02/12 10:27:20;;;;;;;3.95;2.13;;;;;10.40;102593.00;;;;5066856;28;20714;-77
2022/02/12 10:29:47;;;;;;;4.53;2.10;;;;;10.50;102591.00;;;;5073604;28;20218;-77
2022/02/12 10:32:19;;;;;;;5.45;1.90;;;;;10.60;102584.00;;;;5072609;28;20848;-77
2022/02/12 10:34:49;;;;;;;4.90;2.00;;;;;10.70;102581.00;;;;5088263;28;20198;-77
2022/02/12 10:37:18;;;;;;;3.45;2.00;;;;;10.80;102573.00;;;;5084220;28;20187;-77
2022/02/12 10:39:51;;;;;;;7.03;2.50;;;;;10.90;102582.00;;;;5088261;28;20251;-78
2022/02/12 10:42:18;;;;;;;6.47;2.00;;;;;11.00;102573.00;;;;5087984;28;20198;-78
2022/02/12 10:44:46;;;;;;;5.07;2.40;;;;;11.10;102579.00;;;;5087719;28;20218;-78
2022/02/12 10:47:14;;;;;;;6.93;2.40;;;;;11.10;102574.00;;;;5078472;28;20202;-78
2022/02/12 10:49:42;;;;;;;5.47;2.00;;;;;11.20;102572.00;;;;5077412;28;20194;-77
2022/02/12 10:52:11;;;;;;;3.67;2.22;;;;;11.30;102575.00;;;;5081194;28;20657;-77
2022/02/12 10:54:43;;;;;;;10.18;2.63;;;;;11.40;102574.00;;;;5067568;28;20195;-78
2022/02/12 10:57:11;;;;;;;3.72;2.00;;;;;11.50;102577.00;;;;5067719;28;20560;-78
2022/02/12 10:59:42;;;;;;;4.72;2.15;;;;;11.60;102583.00;;;;5089440;28;20187;-76
2022/02/12 11:02:10;;;;;;;4.22;2.00;;;;;11.60;102585.00;;;;5068599;28;20219;-78
2022/02/12 11:04:41;;;;;;;3.35;1.60;;;;;11.70;102579.00;;;;5083803;28;20305;-78
2022/02/12 11:07:13;;;;;;;3.08;1.77;;;;;11.80;102579.00;;;;5083466;28;20289;-77
2022/02/12 11:09:43;;;;;;;6.18;2.38;;;;;11.80;102575.00;;;;5074848;28;20661;-77
2022/02/12 11:12:11;;;;;;;3.35;1.90;;;;;11.90;102573.00;;;;5067373;28;20206;-77
2022/02/12 11:14:39;;;;;;;2.97;1.48;;;;;12.00;102567.00;;;;5084244;28;20198;-77
2022/02/12 11:17:11;;;;;;;5.45;1.92;;;;;12.00;102558.00;;;;5084959;28;20243;-79
2022/02/12 11:19:40;;;;;;;4.95;2.38;;;;;12.10;102550.00;;;;5079840;28;20211;-79
2022/02/12 11:22:12;;;;;;;5.60;1.55;;;;;12.10;102542.00;;;;5069475;28;20209;-77
2022/02/12 11:24:41;;;;;;;4.03;2.10;;;;;12.20;102550.00;;;;5067554;28;20724;-78
2022/02/12 11:27:22;;;;;;;4.18;2.03;;;;;12.20;102540.00;;;;5068731;28;20576;-77
2022/02/12 11:29:53;;;;;;;4.22;2.00;;;;;12.40;102535.00;;;;5070800;28;20201;-76
2022/02/12 11:32:23;;;;;;;4.15;1.95;;;;;12.40;102541.00;;;;5067953;28;20199;-77
2022/02/12 11:35:23;;;;;;;7.63;2.47;;;;;12.40;102541.00;;;;5072075;28;20940;-76
2022/02/12 11:37:52;;;;;;;5.10;1.77;;;;;12.60;102530.00;;;;5067447;28;20195;-76
2022/02/12 11:40:22;;;;;;;4.80;2.10;;;;;12.60;102525.00;;;;5072526;28;20237;-75
2022/02/12 11:42:51;;;;;;;5.15;1.92;;;;;12.70;102518.00;;;;5072776;28;20213;-76
2022/02/12 11:45:26;;;;;;;3.58;1.42;;;;;12.70;102508.00;;;;5078685;28;20232;-76
2022/02/12 11:48:16;;;;;;;2.40;1.58;;;;;12.70;102515.00;;;;5086935;28;20621;-75
2022/02/12 11:50:46;;;;;;;6.35;1.83;;;;;12.90;102505.00;;;;5074683;28;20241;-76
2022/02/12 11:53:38;;;;;;;3.08;1.80;;;;;12.90;102500.00;;;;5070972;28;20211;-76
2022/02/12 11:56:11;;;;;;;3.22;2.05;;;;;13.00;102498.00;;;;5072563;28;21229;-76
2022/02/12 11:58:58;;;;;;;3.47;1.83;;;;;13.00;102487.00;;;;5084639;28;20198;-77
2022/02/12 12:01:48;;;;;;;5.13;2.13;;;;;13.00;102487.00;;;;5087520;28;20605;-76
2022/02/12 12:04:18;;;;;;;2.45;1.58;;;;;13.20;102477.00;;;;5080092;28;20202;-76
2022/02/12 12:07:06;;;;;;;5.22;2.38;;;;;13.10;102479.00;;;;5088226;28;20567;-77
2022/02/12 12:09:35;;;;;;;3.88;1.40;;;;;13.20;102475.00;;;;5087493;28;20373;-78
2022/02/12 12:12:19;;;;;;;3.50;1.73;;;;;13.20;102464.00;;;;5084329;28;20202;-78
2022/02/12 12:14:47;;;;;;;4.60;2.30;;;;;13.40;102453.00;;;;5085341;28;20222;-77
2022/02/12 12:17:15;;;;;;;4.55;2.10;;;;;13.40;102452.00;;;;5084731;28;20198;-78
2022/02/12 12:19:49;;;;;;;3.15;2.08;;;;;13.50;102448.00;;;;5085442;28;20225;-77
2022/02/12 12:22:16;;;;;;;5.03;2.33;;;;;13.50;102447.00;;;;5074463;28;20191;-77
2022/02/12 12:24:45;;;;;;;6.88;2.03;;;;;13.60;102441.00;;;;5068470;28;20719;-77
2022/02/12 12:27:16;;;;;;;3.78;1.88;;;;;13.60;102429.00;;;;5069134;28;20202;-77
2022/02/12 12:32:30;;;;;;;3.65;1.67;;;;;13.60;102419.00;;;;5068396;28;20197;-77